Time;durP1;ratioP1;P1;durP2;ratioP2;P2;SDS_P1;SDS_P2;PMS_P1;PMS_P2;Temp;Humidity;BMP_temperature;BMP_pressure;BME280_temperature;BME280_humidity;BME280_pressure;Samples;Min_cycle;Max_cycle;Signal;HPM_P1;HPM_P2
2023/06/26 00:00:29;;;;;;;;;6.00;4.33;;;;;22.54;66.68;101214.03;5098050;27;45375;-69
2023/06/26 00:02:54;;;;;;;;;4.67;4.00;;;;;22.50;66.55;101217.88;5097533;27;46569;-69
2023/06/26 00:05:20;;;;;;;;;7.00;4.00;;;;;22.41;68.92;101210.44;5097364;27;45339;-69
2023/06/26 00:07:45;;;;;;;;;4.33;4.33;;;;;22.43;68.86;101213.88;5097111;27;45262;-70
2023/06/26 00:10:10;;;;;;;;;7.00;3.67;;;;;22.10;68.71;101164.09;5097534;27;45476;-69
2023/06/26 00:12:36;;;;;;;;;3.33;3.00;;;;;22.32;69.12;101205.63;5097248;27;45402;-69
2023/06/26 00:15:01;;;;;;;;;4.33;3.33;;;;;22.37;67.87;101204.38;5096637;27;45441;-69
2023/06/26 00:17:27;;;;;;;;;4.67;4.67;;;;;22.38;68.56;101222.22;5097549;27;45397;-69
2023/06/26 00:19:52;;;;;;;;;6.00;4.00;;;;;22.32;68.39;101219.94;5097526;27;45515;-69
2023/06/26 00:22:18;;;;;;;;;6.00;4.00;;;;;22.27;69.09;101220.19;5099787;27;46415;-68
2023/06/26 00:24:44;;;;;;;;;5.00;5.00;;;;;22.26;69.30;101223.84;5100545;27;45399;-69
2023/06/26 00:27:10;;;;;;;;;7.33;5.00;;;;;22.22;69.67;101229.47;5100498;27;45433;-69
2023/06/26 00:29:35;;;;;;;;;5.33;4.67;;;;;22.15;69.21;101226.34;5100683;27;45271;-69
2023/06/26 00:32:00;;;;;;;;;4.67;4.00;;;;;22.11;69.32;101222.13;5100590;27;46474;-68
2023/06/26 00:34:26;;;;;;;;;6.33;6.00;;;;;22.02;70.56;101226.28;5100740;27;45318;-68
2023/06/26 00:36:51;;;;;;;;;6.33;6.33;;;;;21.94;70.46;101212.47;5100299;27;45273;-69
2023/06/26 00:39:17;;;;;;;;;5.00;3.00;;;;;21.94;70.98;101222.34;5100623;27;45228;-69
2023/06/26 00:41:42;;;;;;;;;6.67;4.00;;;;;21.90;71.40;101227.91;5100485;27;46752;-69
2023/06/26 00:44:07;;;;;;;;;6.00;4.33;;;;;21.80;72.22;101232.13;5115977;27;45384;-69
2023/06/26 00:46:34;;;;;;;;;6.00;3.33;;;;;21.77;71.93;101239.47;5100525;27;45294;-69
2023/06/26 00:49:01;;;;;;;;;4.67;3.00;;;;;21.76;72.09;101235.09;5100752;27;45277;-69
2023/06/26 00:51:29;;;;;;;;;5.67;4.33;;;;;21.72;71.32;101242.47;5099888;27;45479;-68
2023/06/26 00:53:55;;;;;;;;;4.33;2.33;;;;;21.68;71.90;101238.25;5100257;27;45480;-69
2023/06/26 00:56:20;;;;;;;;;3.00;2.00;;;;;21.61;74.30;101242.25;5100415;27;45282;-69
2023/06/26 00:58:46;;;;;;;;;6.00;4.00;;;;;21.45;74.15;101235.13;5100465;27;45212;-69
2023/06/26 01:01:17;;;;;;;;;5.67;3.67;;;;;21.28;73.66;101212.03;5100257;27;45364;-69
2023/06/26 01:03:44;;;;;;;;;7.33;5.00;;;;;21.49;72.80;101247.41;5099977;27;45375;-69
2023/06/26 01:06:12;;;;;;;;;5.00;5.00;;;;;21.47;75.01;101251.13;5099942;27;45456;-70
2023/06/26 01:08:41;;;;;;;;;3.67;3.00;;;;;21.37;74.72;101253.47;5099993;27;45299;-69
2023/06/26 01:11:07;;;;;;;;;7.00;5.00;;;;;21.34;75.12;101251.00;5099453;27;46575;-68
2023/06/26 01:13:33;;;;;;;;;5.00;4.33;;;;;21.31;74.49;101254.72;5099750;27;45794;-69
2023/06/26 01:15:59;;;;;;;;;8.00;6.00;;;;;21.21;75.57;101248.19;5099867;27;45376;-68
2023/06/26 01:18:26;;;;;;;;;7.33;4.33;;;;;21.09;74.89;101243.56;5100065;27;45482;-69
2023/06/26 01:20:52;;;;;;;;;4.00;4.00;;;;;21.12;77.18;101260.31;5099789;27;45630;-70
2023/06/26 01:23:31;;;;;;;;;6.33;5.00;;;;;21.10;76.17;101261.34;5099584;27;45307;-69
2023/06/26 01:26:18;;;;;;;;;9.00;4.00;;;;;21.11;75.11;101269.28;5099640;27;45279;-68
2023/06/26 01:28:44;;;;;;;;;5.67;3.67;;;;;21.05;75.43;101259.78;5099512;27;45309;-69
2023/06/26 01:31:14;;;;;;;;;3.67;3.67;;;;;20.98;76.98;101257.56;5099563;27;46469;-69
2023/06/26 01:33:41;;;;;;;;;5.00;4.00;;;;;20.97;77.11;101264.75;5099475;27;45350;-69
2023/06/26 01:36:07;;;;;;;;;10.67;4.67;;;;;20.84;78.13;101242.28;5099745;27;45306;-69
2023/06/26 01:38:34;;;;;;;;;10.00;5.33;;;;;20.92;76.63;101274.84;5099871;27;45438;-69
2023/06/26 01:41:00;;;;;;;;;11.33;5.33;;;;;20.90;77.73;101275.88;5099001;27;45704;-69
2023/06/26 01:43:35;;;;;;;;;5.33;5.00;;;;;20.87;78.27;101280.47;5099469;27;45284;-69
2023/06/26 01:46:30;;;;;;;;;8.67;5.33;;;;;20.84;76.96;101282.44;5099704;27;45398;-69
2023/06/26 01:49:01;;;;;;;;;7.33;3.33;;;;;20.78;78.31;101277.47;5099663;27;45483;-69
2023/06/26 01:51:31;;;;;;;;;8.33;4.00;;;;;20.77;78.26;101284.63;5099082;27;45434;-69
2023/06/26 01:53:58;;;;;;;;;6.67;4.33;;;;;20.68;80.06;101274.44;5099289;27;45469;-69
2023/06/26 01:56:25;;;;;;;;;4.25;4.25;;;;;20.48;78.56;101249.66;5028464;27;2020100;-69
2023/06/26 01:58:54;;;;;;;;;6.67;5.67;;;;;20.69;78.47;101281.53;3919454;27;17016771;-69
2023/06/26 02:01:20;;;;;;;;;11.25;6.50;;;;;20.62;79.15;101296.16;5099060;27;45157;-69
2023/06/26 02:03:47;;;;;;;;;5.25;5.00;;;;;20.52;78.80;101280.63;4394154;27;17168000;-69
2023/06/26 02:06:12;;;;;;;;;6.50;6.50;;;;;20.49;79.68;101285.28;5099320;27;45248;-69
2023/06/26 02:08:38;;;;;;;;;10.67;6.67;;;;;20.51;79.45;101294.09;5098984;27;45355;-69
2023/06/26 02:11:03;;;;;;;;;9.00;6.67;;;;;20.26;80.50;101265.16;5098978;27;46458;-69
2023/06/26 02:13:28;;;;;;;;;7.67;6.00;;;;;20.26;80.22;101260.69;5098845;27;45315;-69
2023/06/26 02:15:54;;;;;;;;;5.67;4.33;;;;;20.43;80.71;101299.00;5099205;27;45222;-69
2023/06/26 02:18:22;;;;;;;;;8.00;6.00;;;;;20.40;79.86;101305.38;5099270;27;45331;-69
2023/06/26 02:20:47;;;;;;;;;6.67;5.00;;;;;20.30;79.77;101285.44;5098596;27;46523;-69
2023/06/26 02:23:13;;;;;;;;;6.00;5.00;;;;;20.33;79.32;101301.31;5098319;27;45437;-68
2023/06/26 02:25:38;;;;;;;;;6.33;4.67;;;;;20.23;79.69;101295.63;5098486;27;45279;-69
2023/06/26 02:28:03;;;;;;;;;6.67;5.00;;;;;20.23;79.78;101295.63;5098574;27;45329;-68
2023/06/26 02:30:29;;;;;;;;;6.67;4.00;;;;;20.21;79.55;101304.69;5098467;27;45397;-69
2023/06/26 02:32:54;;;;;;;;;5.67;5.00;;;;;20.15;79.08;101297.84;5098918;27;45799;-69
2023/06/26 02:35:19;;;;;;;;;7.33;4.00;;;;;20.12;79.61;101303.38;5098783;27;45406;-70
2023/06/26 02:37:45;;;;;;;;;6.00;4.00;;;;;20.13;78.80;101307.78;5098209;27;45530;-69
2023/06/26 02:40:10;;;;;;;;;4.00;4.00;;;;;20.04;79.00;101294.88;5098437;27;46464;-68
2023/06/26 02:43:34;;;;;;;;;9.33;5.33;;;;;-147.70;100.00;61350.09;5098571;27;45437;-69
2023/06/26 02:47:39;;;;;;;;;6.00;3.50;;;;;20.04;79.00;101294.88;351470;27;119441476;-69
2023/06/26 02:50:06;;;;;;;;;4.00;4.00;;;;;20.07;78.53;101324.13;3082117;27;57326206;-68
2023/06/26 02:52:31;;;;;;;;;4.00;4.00;;;;;19.95;78.14;101318.50;5098421;27;46025;-69
2023/06/26 02:54:57;;;;;;;;;4.33;4.00;;;;;19.96;77.64;101325.56;5098196;27;45561;-69
2023/06/26 02:57:22;;;;;;;;;2.00;2.00;;;;;19.91;77.02;101319.63;5098178;27;45451;-69
2023/06/26 02:59:47;;;;;;;;;4.00;3.00;;;;;19.90;77.36;101322.38;5098406;27;45495;-69
2023/06/26 03:02:12;;;;;;;;;5.00;3.00;;;;;19.85;77.27;101325.25;5096935;27;45380;-69
2023/06/26 03:04:38;;;;;;;;;7.33;4.67;;;;;19.83;76.50;101332.50;5097926;27;45408;-69
2023/06/26 03:07:04;;;;;;;;;4.67;3.67;;;;;19.78;77.27;101331.84;5098531;27;45334;-68
2023/06/26 03:09:29;;;;;;;;;3.33;3.33;;;;;19.72;76.85;101329.50;5097702;27;47485;-69
2023/06/26 03:11:55;;;;;;;;;6.67;5.00;;;;;19.71;76.79;101335.78;5098202;27;45284;-69
2023/06/26 03:14:21;;;;;;;;;6.00;2.67;;;;;19.69;75.64;101330.50;5097979;27;45239;-69
2023/06/26 03:16:46;;;;;;;;;3.33;3.00;;;;;19.68;76.40;101342.16;5098310;27;45388;-70
2023/06/26 03:19:11;;;;;;;;;3.33;2.00;;;;;19.67;75.83;101345.78;5097914;27;46388;-69
2023/06/26 03:21:37;;;;;;;;;4.33;2.67;;;;;19.63;75.05;101341.53;5098169;27;45158;-69
2023/06/26 03:24:02;;;;;;;;;6.00;3.00;;;;;19.64;75.44;101352.13;5097668;27;45400;-69
2023/06/26 03:26:28;;;;;;;;;6.33;3.00;;;;;19.61;74.92;101351.44;5098349;27;45371;-70
2023/06/26 03:28:54;;;;;;;;;4.67;1.67;;;;;19.58;74.96;101359.59;5097913;27;45320;-69
2023/06/26 03:31:20;;;;;;;;;2.00;2.00;;;;;19.56;74.88;101356.13;5098105;27;45322;-69
2023/06/26 03:33:45;;;;;;;;;3.33;3.00;;;;;19.51;75.04;101352.84;5097669;27;45419;-69
2023/06/26 03:36:11;;;;;;;;;2.33;2.00;;;;;19.56;74.34;101353.47;5098185;27;45363;-69
2023/06/26 03:38:36;;;;;;;;;2.50;2.00;;;;;19.54;74.56;101358.03;4985124;27;3223581;-69
2023/06/26 03:41:02;;;;;;;;;3.00;3.00;;;;;19.47;74.61;101358.34;5097895;27;45464;-69
2023/06/26 03:43:27;;;;;;;;;13.00;7.67;;;;;19.44;74.44;101354.94;5097626;27;45389;-69
2023/06/26 03:45:52;;;;;;;;;5.33;2.00;;;;;19.47;74.13;101369.03;5097857;27;45452;-69
2023/06/26 03:48:18;;;;;;;;;7.67;3.00;;;;;19.45;73.07;101354.88;5097859;27;45355;-69
2023/06/26 03:50:44;;;;;;;;;3.33;2.00;;;;;19.38;73.58;101368.63;5097743;27;45399;-69
2023/06/26 03:53:09;;;;;;;;;4.00;3.00;;;;;19.45;72.55;101373.56;5097777;27;45409;-69
2023/06/26 03:55:34;;;;;;;;;8.33;2.67;;;;;19.42;72.50;101380.88;5097614;27;45437;-70
2023/06/26 03:58:00;;;;;;;;;5.00;2.00;;;;;19.38;72.40;101369.47;5099911;27;45594;-69
2023/06/26 04:00:25;;;;;;;;;5.33;3.00;;;;;19.48;71.60;101392.09;5101541;27;45299;-70
2023/06/26 04:02:51;;;;;;;;;3.67;1.67;;;;;19.44;71.15;101382.50;5101274;27;45557;-70
2023/06/26 04:05:17;;;;;;;;;3.67;3.00;;;;;19.46;70.35;101386.00;5101265;27;45481;-70
2023/06/26 04:07:42;;;;;;;;;1.67;1.67;;;;;19.48;69.96;101391.25;5100926;27;46382;-69
2023/06/26 04:10:08;;;;;;;;;2.00;1.00;;;;;19.46;70.01;101391.34;5100498;27;45401;-69
2023/06/26 04:12:34;;;;;;;;;4.33;2.67;;;;;19.44;70.09;101395.00;5101010;27;45446;-69
2023/06/26 04:14:59;;;;;;;;;2.00;2.00;;;;;19.52;69.75;101400.84;5100881;27;45456;-69
2023/06/26 04:17:24;;;;;;;;;2.67;2.33;;;;;19.45;69.29;101392.25;5100957;27;46469;-69
2023/06/26 04:19:50;;;;;;;;;4.00;2.00;;;;;19.51;68.48;101400.94;5100873;27;45189;-68
2023/06/26 04:22:15;;;;;;;;;2.67;1.67;;;;;19.52;68.38;101400.84;5100914;27;45350;-69
2023/06/26 04:24:40;;;;;;;;;3.67;3.00;;;;;19.51;68.06;101398.25;5100961;27;45445;-69
2023/06/26 04:27:06;;;;;;;;;3.67;1.00;;;;;19.57;68.03;101406.81;5100671;27;46317;-69
2023/06/26 04:29:31;;;;;;;;;2.67;0.33;;;;;19.49;67.79;101399.19;5100570;27;45470;-69
2023/06/26 04:31:57;;;;;;;;;2.00;2.00;;;;;19.48;67.25;101389.44;5100874;27;45724;-69
2023/06/26 04:34:24;;;;;;;;;2.00;1.00;;;;;19.56;66.79;101407.78;5100397;27;45315;-69
2023/06/26 04:36:50;;;;;;;;;2.33;1.00;;;;;19.38;66.32;101382.81;5100610;27;46387;-69
2023/06/26 04:39:16;;;;;;;;;1.33;1.33;;;;;19.57;66.00;101421.97;5100371;27;45865;-68
2023/06/26 04:41:41;;;;;;;;;2.00;1.00;;;;;19.59;66.14;101418.31;5100727;27;45218;-69
2023/06/26 04:44:06;;;;;;;;;2.00;2.00;;;;;19.57;65.49;101419.31;5100770;27;45204;-69
2023/06/26 04:46:32;;;;;;;;;1.00;1.00;;;;;19.56;66.05;101420.25;5100315;27;47258;-69
2023/06/26 04:48:57;;;;;;;;;2.00;1.00;;;;;19.57;65.31;101422.84;5100383;27;45236;-69
2023/06/26 04:51:26;;;;;;;;;2.00;2.00;;;;;19.59;65.31;101434.31;5100395;27;45197;-68
2023/06/26 04:53:52;;;;;;;;;2.00;2.00;;;;;19.49;65.08;101417.88;5100611;27;45340;-69
2023/06/26 04:56:17;;;;;;;;;1.67;1.67;;;;;19.56;64.96;101436.28;5100129;27;46392;-69
2023/06/26 04:58:43;;;;;;;;;2.00;0.00;;;;;19.57;64.75;101449.56;5100037;27;45345;-69
2023/06/26 05:01:08;;;;;;;;;2.00;1.00;;;;;19.63;63.88;101443.03;5100481;27;45398;-69
2023/06/26 05:03:34;;;;;;;;;0.33;0.33;;;;;19.63;64.58;101446.59;5100339;27;45367;-70
2023/06/26 05:05:59;;;;;;;;;2.67;2.00;;;;;19.71;63.51;101458.69;5100110;27;46520;-69
2023/06/26 05:08:26;;;;;;;;;0.67;0.67;;;;;19.67;63.72;101450.81;5091434;27;225151;-69
2023/06/26 05:10:53;;;;;;;;;1.00;1.00;;;;;19.78;63.56;101461.03;5099220;27;45422;-69
2023/06/26 05:13:19;;;;;;;;;2.00;2.00;;;;;19.71;63.77;101453.34;5100173;27;45295;-69
2023/06/26 05:15:46;;;;;;;;;2.00;0.67;;;;;19.75;63.32;101460.25;5099627;27;45217;-69
2023/06/26 05:18:12;;;;;;;;;2.67;1.33;;;;;19.73;63.53;101465.69;5100024;27;45430;-70
2023/06/26 05:20:38;;;;;;;;;1.67;1.00;;;;;19.74;63.60;101464.75;5099989;27;45434;-69
2023/06/26 05:23:04;;;;;;;;;2.00;1.00;;;;;19.73;63.40;101463.00;5099912;27;45458;-69
2023/06/26 05:25:30;;;;;;;;;0.00;0.00;;;;;19.74;63.43;101464.75;5099680;27;46112;-69
2023/06/26 05:28:00;;;;;;;;;2.00;2.00;;;;;19.70;63.07;101460.50;5099708;27;45488;-69
2023/06/26 05:30:26;;;;;;;;;4.00;1.00;;;;;19.73;63.07;101465.69;5099522;27;45679;-69
2023/06/26 05:32:54;;;;;;;;;1.00;1.00;;;;;19.73;62.87;101462.16;5099827;27;45551;-70
2023/06/26 05:35:22;;;;;;;;;1.33;1.33;;;;;19.81;62.09;101484.06;5099603;27;45429;-69
2023/06/26 05:37:50;;;;;;;;;0.00;0.00;;;;;19.85;62.50;101482.09;5099408;27;45246;-68
2023/06/26 05:40:18;;;;;;;;;2.67;1.33;;;;;19.85;62.28;101482.94;5098928;27;45447;-69
2023/06/26 05:42:44;;;;;;;;;1.00;1.00;;;;;19.88;62.39;101471.25;5099436;27;45329;-69
2023/06/26 05:45:10;;;;;;;;;1.33;1.33;;;;;19.94;62.03;101485.19;5099591;27;45362;-68
2023/06/26 05:47:36;;;;;;;;;1.67;1.00;;;;;19.96;62.02;101482.41;5099098;27;45313;-69
2023/06/26 05:50:02;;;;;;;;;3.00;1.00;;;;;20.03;62.29;101494.53;5099207;27;45375;-68
2023/06/26 05:52:28;;;;;;;;;2.33;1.00;;;;;20.00;61.47;101487.53;5099706;27;45326;-68
2023/06/26 05:54:54;;;;;;;;;4.00;2.33;;;;;20.06;61.59;101496.19;5098848;27;45419;-68
2023/06/26 05:57:20;;;;;;;;;3.67;3.00;;;;;20.05;61.80;101491.78;5099056;27;45305;-69
2023/06/26 05:59:46;;;;;;;;;1.33;1.00;;;;;20.16;61.99;101506.34;5098578;27;45436;-69
2023/06/26 06:02:12;;;;;;;;;2.00;1.00;;;;;20.27;60.91;101499.56;5099168;27;45417;-69
2023/06/26 06:04:37;;;;;;;;;2.67;1.00;;;;;20.38;60.63;101509.72;5098092;27;46415;-69
2023/06/26 06:07:03;;;;;;;;;2.67;1.67;;;;;20.41;60.81;101512.25;5098560;27;45501;-69
2023/06/26 06:09:28;;;;;;;;;1.00;1.00;;;;;20.43;60.91;101515.69;5099152;27;45309;-69
2023/06/26 06:11:54;;;;;;;;;2.00;2.00;;;;;20.40;60.08;101511.34;5098640;27;45372;-69
2023/06/26 06:14:19;;;;;;;;;3.00;2.00;;;;;20.36;60.37;101520.50;5098597;27;45589;-69
2023/06/26 06:16:44;;;;;;;;;1.67;1.67;;;;;20.34;61.00;101522.38;5098436;27;45407;-70
2023/06/26 06:19:12;;;;;;;;;2.67;1.00;;;;;20.38;60.54;101517.75;5097754;27;45509;-69
2023/06/26 06:21:38;;;;;;;;;4.00;2.67;;;;;20.38;60.84;101523.97;5098006;27;45426;-68
2023/06/26 06:24:03;;;;;;;;;3.00;1.00;;;;;20.61;60.20;101532.59;5097490;27;45581;-68
2023/06/26 06:26:29;;;;;;;;;2.00;1.33;;;;;20.61;60.59;101535.28;5098446;27;45306;-69
2023/06/26 06:28:54;;;;;;;;;3.00;1.00;;;;;20.50;60.39;101522.44;5098478;27;45367;-69
2023/06/26 06:31:20;;;;;;;;;1.33;1.33;;;;;20.53;60.96;101539.22;5098969;27;45573;-69
2023/06/26 06:33:45;;;;;;;;;2.00;2.00;;;;;20.53;60.75;101551.72;5098265;27;46845;-69
2023/06/26 06:36:11;;;;;;;;;1.67;1.00;;;;;20.58;60.62;101551.47;5098052;27;45623;-69
2023/06/26 06:38:36;;;;;;;;;1.67;1.00;;;;;20.56;60.84;101542.66;5098613;27;45339;-69
2023/06/26 06:41:01;;;;;;;;;5.33;2.00;;;;;20.57;61.19;101550.63;5098741;27;45449;-69
2023/06/26 06:43:27;;;;;;;;;1.00;1.00;;;;;20.59;61.22;101539.84;5097457;27;45489;-68
2023/06/26 06:45:52;;;;;;;;;2.00;2.00;;;;;20.56;61.12;101531.97;5098250;27;45369;-68
2023/06/26 06:48:17;;;;;;;;;2.00;2.00;;;;;20.67;60.88;101554.56;5098275;27;45341;-69
2023/06/26 06:50:43;;;;;;;;;1.33;1.00;;;;;20.62;60.83;101529.84;5098823;27;45736;-68
2023/06/26 06:53:08;;;;;;;;;3.67;1.00;;;;;20.76;60.83;101566.59;5098045;27;46612;-69
2023/06/26 06:55:33;;;;;;;;;2.33;2.00;;;;;20.72;60.64;101545.44;5097921;27;45363;-68
2023/06/26 06:57:59;;;;;;;;;1.67;1.00;;;;;20.79;60.85;101566.44;5098359;27;45268;-68
2023/06/26 07:00:24;;;;;;;;;2.33;2.00;;;;;20.56;61.22;101524.78;5098697;27;45313;-69
2023/06/26 07:02:50;;;;;;;;;1.00;1.00;;;;;20.86;60.89;101565.16;5098160;27;47319;-69
2023/06/26 07:05:16;;;;;;;;;1.33;1.33;;;;;20.89;61.01;101553.44;5097767;27;45537;-68
2023/06/26 07:07:41;;;;;;;;;3.67;1.00;;;;;20.98;60.38;101552.94;5095893;27;45543;-68
2023/06/26 07:10:12;;;;;;;;;2.33;2.00;;;;;21.04;60.12;101552.63;5098177;27;45439;-68
2023/06/26 07:12:37;;;;;;;;;7.00;2.00;;;;;21.29;59.79;101556.66;5097800;27;46285;-68
2023/06/26 07:15:05;;;;;;;;;4.00;2.00;;;;;21.91;57.79;101564.81;5097317;27;45431;-69
2023/06/26 07:17:34;;;;;;;;;3.33;2.00;;;;;22.43;56.38;101557.34;5097185;27;45497;-69
2023/06/26 07:20:00;;;;;;;;;2.00;2.00;;;;;22.77;54.87;101568.72;5097813;27;45325;-68
2023/06/26 07:22:26;;;;;;;;;2.33;2.00;;;;;22.86;54.08;101560.13;5098217;27;46515;-68
2023/06/26 07:24:51;;;;;;;;;2.00;2.00;;;;;22.79;54.18;101569.50;5097038;27;45379;-69
2023/06/26 07:27:18;;;;;;;;;3.00;0.00;;;;;22.78;54.91;101567.78;5096170;27;45928;-69
2023/06/26 07:29:44;;;;;;;;;1.67;1.67;;;;;22.77;54.40;101576.78;5098265;27;45342;-68
2023/06/26 07:32:10;;;;;;;;;2.00;2.00;;;;;22.64;54.90;101575.81;5100706;27;46497;-69
2023/06/26 07:34:35;;;;;;;;;3.00;1.00;;;;;22.54;54.79;101571.00;5100793;27;45309;-68
2023/06/26 07:37:00;;;;;;;;;2.00;2.00;;;;;22.86;54.92;101570.88;5098952;27;45878;-69
2023/06/26 07:39:26;;;;;;;;;2.33;1.00;;;;;23.04;54.33;101581.44;5100402;27;45383;-69
2023/06/26 07:41:51;;;;;;;;;1.00;1.00;;;;;22.91;54.33;101584.00;5100364;27;45525;-69
2023/06/26 07:44:17;;;;;;;;;2.00;1.00;;;;;22.78;53.98;101578.50;5101091;27;45247;-69
2023/06/26 07:46:42;;;;;;;;;2.67;2.67;;;;;22.71;54.15;101582.53;5101297;27;45414;-68
2023/06/26 07:49:07;;;;;;;;;2.00;2.00;;;;;22.62;54.53;101580.41;5101299;27;45178;-69
2023/06/26 07:51:33;;;;;;;;;3.00;3.00;;;;;22.54;54.87;101581.75;5100022;27;46603;-69
2023/06/26 07:53:58;;;;;;;;;3.67;2.00;;;;;22.55;54.38;101583.47;5100752;27;45255;-68
2023/06/26 07:56:24;;;;;;;;;3.67;3.67;;;;;22.54;53.79;101597.84;5100008;27;45567;-69
2023/06/26 07:58:49;;;;;;;;;1.33;1.33;;;;;22.36;53.96;101569.41;5100952;27;45166;-68
2023/06/26 08:01:14;;;;;;;;;1.00;1.00;;;;;22.53;53.64;101603.31;5100650;27;45442;-69
2023/06/26 08:03:40;;;;;;;;;2.00;1.33;;;;;22.51;53.73;101589.97;5101016;27;45343;-68
2023/06/26 08:06:05;;;;;;;;;1.00;1.00;;;;;22.49;54.14;101591.03;5100715;27;45364;-68
2023/06/26 08:08:31;;;;;;;;;3.00;1.00;;;;;22.49;53.34;101597.25;5101107;27;45237;-69
2023/06/26 08:10:56;;;;;;;;;1.00;1.00;;;;;22.51;53.04;101599.84;5100623;27;45857;-68
2023/06/26 08:13:21;;;;;;;;;1.00;1.00;;;;;22.50;53.01;101604.34;5100725;27;45465;-70
2023/06/26 08:15:47;;;;;;;;;3.67;2.00;;;;;22.68;52.52;101605.06;5100732;27;45281;-68
2023/06/26 08:18:12;;;;;;;;;1.33;1.00;;;;;22.74;52.64;101604.69;5100507;27;45447;-69
2023/06/26 08:20:37;;;;;;;;;2.00;0.67;;;;;22.73;52.32;101607.50;5100751;27;46294;-69
2023/06/26 08:23:04;;;;;;;;;2.00;1.67;;;;;22.64;52.18;101600.84;5100709;27;45409;-69
2023/06/26 08:25:29;;;;;;;;;2.00;2.00;;;;;22.67;52.75;101599.78;5100733;27;45414;-69
2023/06/26 08:27:55;;;;;;;;;1.00;1.00;;;;;22.75;52.24;101616.31;5100738;27;45350;-69
2023/06/26 08:30:21;;;;;;;;;3.00;1.33;;;;;22.75;51.45;101611.78;5100405;27;45579;-68
2023/06/26 08:32:46;;;;;;;;;2.33;1.00;;;;;22.81;51.12;101615.06;5100536;27;46137;-68
2023/06/26 08:35:12;;;;;;;;;2.00;2.00;;;;;22.91;50.55;101616.22;5099862;27;45352;-68
2023/06/26 08:37:38;;;;;;;;;2.00;0.00;;;;;23.20;49.92;101637.78;5099416;27;46503;-68
2023/06/26 08:40:04;;;;;;;;;2.00;0.33;;;;;23.34;48.45;101624.34;5097017;27;45600;-65
2023/06/26 08:42:29;;;;;;;;;6.00;6.00;;;;;23.70;48.50;101635.53;5097652;27;45324;-72
2023/06/26 08:44:54;;;;;;;;;3.00;3.00;;;;;23.86;49.10;101630.97;5100055;27;45327;-69
2023/06/26 08:47:21;;;;;;;;;1.00;1.00;;;;;24.05;47.64;101625.22;5100162;27;45369;-69
2023/06/26 08:49:51;;;;;;;;;2.00;2.00;;;;;24.12;47.48;101618.47;5099606;27;47209;-69
2023/06/26 08:52:23;;;;;;;;;3.67;1.67;;;;;24.14;46.47;101630.00;5076813;27;45459;-75
2023/06/26 08:54:55;;;;;;;;;3.33;2.00;;;;;24.11;47.05;101635.59;5079192;27;45899;-68
2023/06/26 08:57:22;;;;;;;;;4.33;4.00;;;;;24.10;45.86;101622.22;5078430;27;45307;-74
2023/06/26 08:59:48;;;;;;;;;3.33;1.67;;;;;24.12;46.17;101623.88;5078259;27;46098;-69
2023/06/26 09:02:14;;;;;;;;;2.67;2.67;;;;;24.09;45.68;101609.72;5078905;27;45356;-69
2023/06/26 09:04:40;;;;;;;;;3.00;1.33;;;;;24.21;45.64;101617.00;5085428;27;45530;-71
2023/06/26 09:07:06;;;;;;;;;3.67;2.00;;;;;24.37;45.60;101600.69;5099293;27;45479;-73
2023/06/26 09:09:31;;;;;;;;;1.00;1.00;;;;;24.51;45.71;101607.81;5099114;27;45588;-70
2023/06/26 09:11:56;;;;;;;;;3.00;1.00;;;;;24.50;44.95;101619.56;5098937;27;45351;-72
2023/06/26 09:14:23;;;;;;;;;2.00;2.00;;;;;24.67;45.43;101622.00;5097618;27;45318;-69
2023/06/26 09:16:48;;;;;;;;;3.00;2.67;;;;;25.14;44.43;101629.56;5099168;27;45400;-67
2023/06/26 09:19:14;;;;;;;;;4.00;2.00;;;;;25.60;42.91;101620.06;5097270;27;46551;-72
2023/06/26 09:21:41;;;;;;;;;1.67;1.67;;;;;25.98;44.18;101625.34;5098901;27;45413;-70
2023/06/26 09:24:10;;;;;;;;;3.00;3.00;;;;;26.86;41.57;101634.09;5098325;27;45540;-72
2023/06/26 09:26:39;;;;;;;;;3.00;2.00;;;;;28.18;40.42;101641.56;5098407;27;45542;-68
2023/06/26 09:29:06;;;;;;;;;1.00;1.00;;;;;28.38;38.37;101649.84;5098059;27;46081;-69
2023/06/26 09:31:33;;;;;;;;;1.00;1.00;;;;;29.21;37.98;101644.63;5098019;27;45452;-69
2023/06/26 09:33:59;;;;;;;;;3.00;1.67;;;;;31.07;36.49;101638.47;5099048;27;45653;-70
2023/06/26 09:36:28;;;;;;;;;2.00;2.00;;;;;32.78;33.33;101623.38;5098418;27;45524;-69
2023/06/26 09:38:53;;;;;;;;;5.00;3.00;;;;;33.75;31.60;101619.59;5097922;27;46524;-67
2023/06/26 09:41:20;;;;;;;;;0.67;0.67;;;;;35.51;30.60;101635.59;5097916;27;45347;-67
2023/06/26 09:43:49;;;;;;;;;2.33;1.33;;;;;36.99;28.87;101631.81;5097876;27;45343;-68
2023/06/26 09:46:25;;;;;;;;;0.67;0.67;;;;;38.18;28.65;101651.91;5098367;27;45512;-68
2023/06/26 09:49:02;;;;;;;;;2.00;2.00;;;;;39.16;26.02;101650.22;5097993;27;45455;-70
2023/06/26 09:51:30;;;;;;;;;0.00;0.00;;;;;38.89;26.72;101667.59;5098002;27;45447;-70
2023/06/26 09:53:55;;;;;;;;;2.00;0.67;;;;;39.05;25.63;101655.44;5096940;27;45394;-70
2023/06/26 09:56:21;;;;;;;;;1.67;0.67;;;;;38.45;26.39;101659.38;5098265;27;45486;-70
2023/06/26 09:58:47;;;;;;;;;0.67;0.00;;;;;37.30;28.52;101655.50;5097634;27;45495;-68
2023/06/26 10:01:13;;;;;;;;;4.33;0.67;;;;;36.74;25.89;101672.34;5098028;27;45407;-73
2023/06/26 10:03:39;;;;;;;;;3.00;1.33;;;;;36.14;27.62;101652.91;5098123;27;45819;-65
2023/06/26 10:06:05;;;;;;;;;1.33;1.33;;;;;35.66;26.98;101677.66;5097963;27;45506;-70
2023/06/26 10:08:31;;;;;;;;;2.33;0.33;;;;;34.83;26.94;101678.91;5096593;27;45580;-72
2023/06/26 10:10:58;;;;;;;;;0.67;0.67;;;;;33.99;28.77;101679.78;5097631;27;45430;-70
2023/06/26 10:13:31;;;;;;;;;3.00;1.33;;;;;33.10;28.69;101670.13;5097469;27;45438;-68
2023/06/26 10:16:00;;;;;;;;;0.67;0.67;;;;;32.53;29.54;101657.75;5098110;27;45488;-68
2023/06/26 10:18:27;;;;;;;;;1.33;1.33;;;;;32.90;29.15;101656.69;5097707;27;45635;-68
2023/06/26 10:20:57;;;;;;;;;0.00;0.00;;;;;34.16;29.67;101655.25;5097347;27;45441;-67
2023/06/26 10:23:25;;;;;;;;;0.67;0.00;;;;;35.58;27.91;101655.78;5097559;27;45446;-68
2023/06/26 10:25:52;;;;;;;;;1.00;1.00;;;;;36.46;25.52;101655.63;5098549;27;45416;-68
2023/06/26 10:28:21;;;;;;;;;0.67;0.33;;;;;36.50;25.30;101659.69;5098094;27;47558;-69
2023/06/26 10:30:50;;;;;;;;;0.67;0.67;;;;;36.30;25.47;101667.59;5098122;27;45364;-69
2023/06/26 10:33:16;;;;;;;;;0.67;0.67;;;;;36.84;25.25;101680.34;5097716;27;45468;-69
2023/06/26 10:35:45;;;;;;;;;0.00;0.00;;;;;37.61;24.89;101673.66;5096331;27;45691;-69
2023/06/26 10:38:11;;;;;;;;;0.67;0.67;;;;;38.36;23.93;101679.84;5097328;27;46031;-69
2023/06/26 10:40:48;;;;;;;;;0.00;0.00;;;;;38.88;24.89;101686.03;5098220;27;45701;-69
2023/06/26 10:43:14;;;;;;;;;2.33;2.33;;;;;39.32;23.16;101673.00;5098122;27;45455;-68
2023/06/26 10:45:53;;;;;;;;;1.00;1.00;;;;;38.81;23.03;101671.38;5097923;27;45207;-68
2023/06/26 10:48:18;;;;;;;;;0.67;0.67;;;;;37.98;22.82;101664.41;5097037;27;46646;-69
2023/06/26 10:50:47;;;;;;;;;0.67;0.67;;;;;37.91;23.16;101681.91;5097024;27;45369;-69
2023/06/26 10:53:26;;;;;;;;;1.00;1.00;;;;;38.22;23.29;101675.28;5098466;27;45317;-69
2023/06/26 10:56:00;;;;;;;;;4.00;2.67;;;;;37.83;22.55;101691.09;5098477;27;45384;-70
2023/06/26 10:58:41;;;;;;;;;2.67;2.67;;;;;37.73;23.05;101694.16;5098113;27;46669;-70
2023/06/26 11:01:12;;;;;;;;;0.67;0.67;;;;;37.85;23.21;101688.16;5098245;27;45430;-69
2023/06/26 11:03:39;;;;;;;;;1.00;0.67;;;;;37.95;22.48;101697.81;5098565;27;45339;-70
2023/06/26 11:06:12;;;;;;;;;2.00;0.33;;;;;37.74;23.24;101700.50;5097813;27;45365;-70
2023/06/26 11:08:49;;;;;;;;;6.00;6.00;;;;;37.11;23.64;101700.84;5098062;27;45340;-70
2023/06/26 11:11:15;;;;;;;;;2.67;0.33;;;;;36.43;22.47;101706.22;5098113;27;45456;-70
2023/06/26 11:13:42;;;;;;;;;1.33;0.67;;;;;35.51;23.61;101698.59;5097791;27;45450;-69
2023/06/26 11:16:08;;;;;;;;;0.67;0.67;;;;;34.60;23.98;101678.72;5098002;27;45553;-70
2023/06/26 11:18:34;;;;;;;;;0.00;0.00;;;;;33.86;25.06;101676.69;5098226;27;45344;-69
2023/06/26 11:21:11;;;;;;;;;1.33;0.00;;;;;33.04;25.71;101692.59;5098064;27;45216;-69
2023/06/26 11:23:37;;;;;;;;;41.50;35.25;;;;;32.39;26.28;101701.94;5098032;27;45291;-69